sensor_id;sensor_type;location;lat;lon;timestamp;pressure;altitude;pressure_sealevel;temperature;humidity
40596;BME280;26304;48.794;9.820;2023-08-30T00:02:19;95779.13;;;18.01;72.64
40596;BME280;26304;48.794;9.820;2023-08-30T00:04:41;95785.94;;;17.91;72.55
40596;BME280;26304;48.794;9.820;2023-08-30T00:07:05;95780.63;;;17.84;72.77
40596;BME280;26304;48.794;9.820;2023-08-30T00:09:28;95782.19;;;17.92;72.68
40596;BME280;26304;48.794;9.820;2023-08-30T00:11:50;95776.88;;;17.99;72.37
40596;BME280;26304;48.794;9.820;2023-08-30T00:14:12;95776.88;;;18.03;72.13
40596;BME280;26304;48.794;9.820;2023-08-30T00:16:35;95788.91;;;18.00;71.96
40596;BME280;26304;48.794;9.820;2023-08-30T00:18:59;95777.25;;;17.97;72.17
40596;BME280;26304;48.794;9.820;2023-08-30T00:21:22;95778.03;;;17.91;72.41
40596;BME280;26304;48.794;9.820;2023-08-30T00:23:45;95772.75;;;17.98;72.26
40596;BME280;26304;48.794;9.820;2023-08-30T00:26:08;95769.75;;;17.96;72.09
40596;BME280;26304;48.794;9.820;2023-08-30T00:28:30;95769.03;;;17.92;72.20
40596;BME280;26304;48.794;9.820;2023-08-30T00:30:53;95767.13;;;17.96;72.18
40596;BME280;26304;48.794;9.820;2023-08-30T00:33:16;95774.28;;;17.95;72.07
40596;BME280;26304;48.794;9.820;2023-08-30T00:35:39;95771.28;;;17.93;72.38
40596;BME280;26304;48.794;9.820;2023-08-30T00:38:01;95773.16;;;17.89;71.99
40596;BME280;26304;48.794;9.820;2023-08-30T00:40:25;95766.78;;;17.90;71.89
40596;BME280;26304;48.794;9.820;2023-08-30T00:42:48;95761.13;;;17.92;71.72
40596;BME280;26304;48.794;9.820;2023-08-30T00:45:10;95769.78;;;17.92;71.76
40596;BME280;26304;48.794;9.820;2023-08-30T00:47:32;95764.53;;;17.89;71.94
40596;BME280;26304;48.794;9.820;2023-08-30T00:49:55;95768.28;;;17.95;71.55
40596;BME280;26304;48.794;9.820;2023-08-30T00:52:18;95763.00;;;17.88;72.05
40596;BME280;26304;48.794;9.820;2023-08-30T00:54:41;95764.88;;;17.91;71.52
40596;BME280;26304;48.794;9.820;2023-08-30T00:57:04;95768.63;;;17.83;71.76
40596;BME280;26304;48.794;9.820;2023-08-30T00:59:29;95761.47;;;17.87;71.68
40596;BME280;26304;48.794;9.820;2023-08-30T01:01:55;95767.16;;;17.89;71.19
40596;BME280;26304;48.794;9.820;2023-08-30T01:04:18;95764.88;;;17.91;71.49
40596;BME280;26304;48.794;9.820;2023-08-30T01:06:41;95758.47;;;17.85;71.44
40596;BME280;26304;48.794;9.820;2023-08-30T01:09:04;95769.38;;;17.87;71.32
40596;BME280;26304;48.794;9.820;2023-08-30T01:11:33;95758.88;;;17.94;71.39
40596;BME280;26304;48.794;9.820;2023-08-30T01:14:04;95754.72;;;17.82;71.42
40596;BME280;26304;48.794;9.820;2023-08-30T01:16:27;95752.09;;;17.78;71.79
40596;BME280;26304;48.794;9.820;2023-08-30T01:18:53;95757.00;;;17.76;71.77
40596;BME280;26304;48.794;9.820;2023-08-30T01:21:32;95749.16;;;17.62;72.13
40596;BME280;26304;48.794;9.820;2023-08-30T01:23:59;95753.28;;;17.63;72.08
40596;BME280;26304;48.794;9.820;2023-08-30T01:26:29;95749.88;;;17.66;71.92
40596;BME280;26304;48.794;9.820;2023-08-30T01:28:59;95740.09;;;17.74;71.67
40596;BME280;26304;48.794;9.820;2023-08-30T01:31:24;95747.59;;;17.83;71.32
40596;BME280;26304;48.794;9.820;2023-08-30T01:33:48;95733.38;;;17.73;71.29
40596;BME280;26304;48.794;9.820;2023-08-30T01:36:12;95735.94;;;17.84;70.90
40596;BME280;26304;48.794;9.820;2023-08-30T01:38:35;95740.84;;;17.82;70.67
40596;BME280;26304;48.794;9.820;2023-08-30T01:40:59;95736.72;;;17.73;71.28
40596;BME280;26304;48.794;9.820;2023-08-30T01:43:22;95732.22;;;17.77;71.06
40596;BME280;26304;48.794;9.820;2023-08-30T01:45:48;95743.13;;;17.76;70.81
40596;BME280;26304;48.794;9.820;2023-08-30T01:48:13;95733.34;;;17.76;70.87
40596;BME280;26304;48.794;9.820;2023-08-30T01:50:37;95743.47;;;17.82;70.43
40596;BME280;26304;48.794;9.820;2023-08-30T01:53:01;95746.84;;;17.78;70.43
40596;BME280;26304;48.794;9.820;2023-08-30T01:55:25;95746.13;;;17.74;70.14
40596;BME280;26304;48.794;9.820;2023-08-30T01:57:49;95749.13;;;17.73;70.30
40596;BME280;26304;48.794;9.820;2023-08-30T02:00:12;95747.59;;;17.75;70.26
40596;BME280;26304;48.794;9.820;2023-08-30T02:02:36;95751.38;;;17.78;69.87
40596;BME280;26304;48.794;9.820;2023-08-30T02:04:58;95737.50;;;17.70;70.20
40596;BME280;26304;48.794;9.820;2023-08-30T02:07:27;95736.38;;;17.71;70.31
40596;BME280;26304;48.794;9.820;2023-08-30T02:09:54;95737.84;;;17.72;70.11
40596;BME280;26304;48.794;9.820;2023-08-30T02:12:21;95741.97;;;17.77;70.14
40596;BME280;26304;48.794;9.820;2023-08-30T02:14:48;95746.13;;;17.67;70.14
40596;BME280;26304;48.794;9.820;2023-08-30T02:17:12;95737.13;;;17.68;69.77
40596;BME280;26304;48.794;9.820;2023-08-30T02:19:36;95743.50;;;17.67;70.31
40596;BME280;26304;48.794;9.820;2023-08-30T02:21:59;95740.16;;;17.63;70.10
40596;BME280;26304;48.794;9.820;2023-08-30T02:24:21;95744.63;;;17.66;69.85
40596;BME280;26304;48.794;9.820;2023-08-30T02:26:43;95743.88;;;17.66;69.81
40596;BME280;26304;48.794;9.820;2023-08-30T02:29:06;95746.13;;;17.67;69.79
40596;BME280;26304;48.794;9.820;2023-08-30T02:31:29;95746.16;;;17.60;70.25
40596;BME280;26304;48.794;9.820;2023-08-30T02:33:51;95753.66;;;17.65;70.21
40596;BME280;26304;48.794;9.820;2023-08-30T02:36:15;95755.91;;;17.63;70.04
40596;BME280;26304;48.794;9.820;2023-08-30T02:38:38;95746.16;;;17.60;70.11
40596;BME280;26304;48.794;9.820;2023-08-30T02:41:00;95745.78;;;17.61;70.13
40596;BME280;26304;48.794;9.820;2023-08-30T02:43:22;95745.38;;;17.59;70.40
40596;BME280;26304;48.794;9.820;2023-08-30T02:45:45;95753.66;;;17.61;70.37
40596;BME280;26304;48.794;9.820;2023-08-30T02:48:07;95757.78;;;17.59;70.19
40596;BME280;26304;48.794;9.820;2023-08-30T02:50:29;95762.66;;;17.64;70.13
40596;BME280;26304;48.794;9.820;2023-08-30T02:52:53;95761.91;;;17.64;70.31
40596;BME280;26304;48.794;9.820;2023-08-30T02:55:16;95762.66;;;17.60;70.05
40596;BME280;26304;48.794;9.820;2023-08-30T02:57:38;95754.41;;;17.58;70.29
40596;BME280;26304;48.794;9.820;2023-08-30T03:00:00;95754.41;;;17.55;70.38
40596;BME280;26304;48.794;9.820;2023-08-30T03:02:26;95755.16;;;17.59;70.18
40596;BME280;26304;48.794;9.820;2023-08-30T03:04:49;95749.16;;;17.55;70.27
40596;BME280;26304;48.794;9.820;2023-08-30T03:07:12;95750.28;;;17.61;70.13
40596;BME280;26304;48.794;9.820;2023-08-30T03:09:35;95745.75;;;17.58;70.49
40596;BME280;26304;48.794;9.820;2023-08-30T03:11:59;95743.50;;;17.56;70.46
40596;BME280;26304;48.794;9.820;2023-08-30T03:14:22;95744.69;;;17.41;71.07
40596;BME280;26304;48.794;9.820;2023-08-30T03:16:45;95744.31;;;17.42;71.17
40596;BME280;26304;48.794;9.820;2023-08-30T03:19:08;95742.78;;;17.45;71.47
40596;BME280;26304;48.794;9.820;2023-08-30T03:21:30;95743.16;;;17.54;71.28
40596;BME280;26304;48.794;9.820;2023-08-30T03:23:52;95737.16;;;17.47;71.35
40596;BME280;26304;48.794;9.820;2023-08-30T03:26:16;95739.41;;;17.34;72.69
40596;BME280;26304;48.794;9.820;2023-08-30T03:28:39;95739.03;;;17.39;72.45
40596;BME280;26304;48.794;9.820;2023-08-30T03:31:10;95737.16;;;17.47;71.93
40596;BME280;26304;48.794;9.820;2023-08-30T03:33:32;95738.66;;;17.44;72.12
40596;BME280;26304;48.794;9.820;2023-08-30T03:35:58;95731.91;;;17.43;72.22
40596;BME280;26304;48.794;9.820;2023-08-30T03:38:20;95721.38;;;17.47;71.83
40596;BME280;26304;48.794;9.820;2023-08-30T03:40:42;95726.63;;;17.50;72.07
40596;BME280;26304;48.794;9.820;2023-08-30T03:43:06;95729.28;;;17.43;72.05
40596;BME280;26304;48.794;9.820;2023-08-30T03:45:29;95736.41;;;17.42;71.92
40596;BME280;26304;48.794;9.820;2023-08-30T03:47:51;95731.16;;;17.35;72.50
40596;BME280;26304;48.794;9.820;2023-08-30T03:50:14;95732.66;;;17.43;72.00
40596;BME280;26304;48.794;9.820;2023-08-30T03:52:36;95740.16;;;17.41;72.04
40596;BME280;26304;48.794;9.820;2023-08-30T03:54:58;95740.16;;;17.49;71.65
40596;BME280;26304;48.794;9.820;2023-08-30T03:57:21;95740.16;;;17.52;71.74
40596;BME280;26304;48.794;9.820;2023-08-30T03:59:45;95736.41;;;17.42;71.88
40596;BME280;26304;48.794;9.820;2023-08-30T04:02:08;95740.91;;;17.38;72.09
40596;BME280;26304;48.794;9.820;2023-08-30T04:04:30;95746.16;;;17.53;71.46
40596;BME280;26304;48.794;9.820;2023-08-30T04:06:53;95745.41;;;17.56;71.43
40596;BME280;26304;48.794;9.820;2023-08-30T04:09:15;95748.41;;;17.51;71.78
40596;BME280;26304;48.794;9.820;2023-08-30T04:11:37;95750.28;;;17.47;71.57
40596;BME280;26304;48.794;9.820;2023-08-30T04:14:00;95746.91;;;17.50;71.47
40596;BME280;26304;48.794;9.820;2023-08-30T04:16:24;95745.41;;;17.41;72.17
40596;BME280;26304;48.794;9.820;2023-08-30T04:18:47;95743.16;;;17.43;71.98
40596;BME280;26304;48.794;9.820;2023-08-30T04:21:09;95748.41;;;17.54;71.77
40596;BME280;26304;48.794;9.820;2023-08-30T04:23:31;95752.16;;;17.71;71.51
40596;BME280;26304;48.794;9.820;2023-08-30T04:25:55;95749.88;;;17.73;71.56
40596;BME280;26304;48.794;9.820;2023-08-30T04:28:17;95738.22;;;17.78;71.21
40596;BME280;26304;48.794;9.820;2023-08-30T04:30:39;95736.31;;;17.82;71.01
40596;BME280;26304;48.794;9.820;2023-08-30T04:33:04;95740.88;;;17.89;71.12
40596;BME280;26304;48.794;9.820;2023-08-30T04:35:26;95735.94;;;17.94;70.80
40596;BME280;26304;48.794;9.820;2023-08-30T04:37:49;95736.31;;;17.93;70.54
40596;BME280;26304;48.794;9.820;2023-08-30T04:40:11;95737.84;;;17.94;70.59
40596;BME280;26304;48.794;9.820;2023-08-30T04:42:34;95731.84;;;17.93;70.60
40596;BME280;26304;48.794;9.820;2023-08-30T04:44:56;95740.84;;;17.92;70.51
40596;BME280;26304;48.794;9.820;2023-08-30T04:47:22;95739.34;;;17.84;70.97
40596;BME280;26304;48.794;9.820;2023-08-30T04:49:50;95742.38;;;17.79;71.24
40596;BME280;26304;48.794;9.820;2023-08-30T04:52:12;95736.34;;;17.75;71.55
40596;BME280;26304;48.794;9.820;2023-08-30T04:54:34;95735.63;;;17.74;71.33
40596;BME280;26304;48.794;9.820;2023-08-30T04:56:57;95736.38;;;17.71;71.56
40596;BME280;26304;48.794;9.820;2023-08-30T04:59:19;95742.38;;;17.68;71.55
40596;BME280;26304;48.794;9.820;2023-08-30T05:01:41;95739.00;;;17.71;71.57
40596;BME280;26304;48.794;9.820;2023-08-30T05:04:05;95738.59;;;17.76;71.51
40596;BME280;26304;48.794;9.820;2023-08-30T05:06:29;95740.84;;;17.71;72.14
40596;BME280;26304;48.794;9.820;2023-08-30T05:08:52;95732.59;;;17.72;71.72
40596;BME280;26304;48.794;9.820;2023-08-30T05:11:14;95732.22;;;17.77;71.38
40596;BME280;26304;48.794;9.820;2023-08-30T05:13:37;95731.47;;;17.73;71.35
40596;BME280;26304;48.794;9.820;2023-08-30T05:16:00;95735.63;;;17.74;72.49
40596;BME280;26304;48.794;9.820;2023-08-30T05:18:22;95734.13;;;17.70;72.19
40596;BME280;26304;48.794;9.820;2023-08-30T05:20:44;95731.09;;;17.68;73.30
40596;BME280;26304;48.794;9.820;2023-08-30T05:23:08;95734.84;;;17.70;72.47
40596;BME280;26304;48.794;9.820;2023-08-30T05:25:31;95722.06;;;17.72;72.53
40596;BME280;26304;48.794;9.820;2023-08-30T05:27:53;95719.81;;;17.82;72.13
40596;BME280;26304;48.794;9.820;2023-08-30T05:30:16;95713.78;;;17.88;72.05
40596;BME280;26304;48.794;9.820;2023-08-30T05:32:38;95715.28;;;17.93;71.63
40596;BME280;26304;48.794;9.820;2023-08-30T05:35:01;95720.94;;;17.95;71.79
40596;BME280;26304;48.794;9.820;2023-08-30T05:37:23;95715.28;;;17.93;71.39
40596;BME280;26304;48.794;9.820;2023-08-30T05:39:47;95720.16;;;17.98;71.38
40596;BME280;26304;48.794;9.820;2023-08-30T05:42:09;95715.69;;;17.95;71.24
40596;BME280;26304;48.794;9.820;2023-08-30T05:44:31;95720.53;;;17.96;71.29
40596;BME280;26304;48.794;9.820;2023-08-30T05:46:54;95719.41;;;17.97;71.04
40596;BME280;26304;48.794;9.820;2023-08-30T05:49:16;95719.44;;;17.94;71.33
40596;BME280;26304;48.794;9.820;2023-08-30T05:51:39;95719.03;;;17.99;70.81
40596;BME280;26304;48.794;9.820;2023-08-30T05:54:01;95724.66;;;18.01;71.14
40596;BME280;26304;48.794;9.820;2023-08-30T05:56:25;95722.06;;;17.94;70.96
40596;BME280;26304;48.794;9.820;2023-08-30T05:58:48;95728.81;;;17.95;71.13
40596;BME280;26304;48.794;9.820;2023-08-30T06:01:11;95726.19;;;17.95;71.02
40596;BME280;26304;48.794;9.820;2023-08-30T06:03:33;95734.44;;;17.97;71.12
40596;BME280;26304;48.794;9.820;2023-08-30T06:05:56;95732.91;;;18.03;71.14
40596;BME280;26304;48.794;9.820;2023-08-30T06:08:18;95737.78;;;18.01;70.96
40596;BME280;26304;48.794;9.820;2023-08-30T06:10:41;95740.41;;;18.08;70.48
40596;BME280;26304;48.794;9.820;2023-08-30T06:13:04;95734.78;;;18.06;70.94
40596;BME280;26304;48.794;9.820;2023-08-30T06:15:27;95734.03;;;18.06;70.71
40596;BME280;26304;48.794;9.820;2023-08-30T06:17:49;95741.94;;;18.02;70.86
40596;BME280;26304;48.794;9.820;2023-08-30T06:20:12;95742.31;;;18.01;71.03
40596;BME280;26304;48.794;9.820;2023-08-30T06:22:34;95741.94;;;17.99;70.84
40596;BME280;26304;48.794;9.820;2023-08-30T06:24:57;95746.06;;;18.00;71.40
40596;BME280;26304;48.794;9.820;2023-08-30T06:27:19;95745.69;;;18.01;70.96
40596;BME280;26304;48.794;9.820;2023-08-30T06:29:43;95753.94;;;18.00;70.74
40596;BME280;26304;48.794;9.820;2023-08-30T06:32:06;95748.69;;;18.00;70.97
40596;BME280;26304;48.794;9.820;2023-08-30T06:34:28;95749.47;;;18.00;70.79
40596;BME280;26304;48.794;9.820;2023-08-30T06:36:51;95749.09;;;18.02;71.06
40596;BME280;26304;48.794;9.820;2023-08-30T06:39:13;95744.94;;;18.01;70.80
40596;BME280;26304;48.794;9.820;2023-08-30T06:41:36;95743.44;;;18.03;70.83
40596;BME280;26304;48.794;9.820;2023-08-30T06:43:58;95757.72;;;18.02;70.68
40596;BME280;26304;48.794;9.820;2023-08-30T06:46:22;95750.19;;;18.04;70.63
40596;BME280;26304;48.794;9.820;2023-08-30T06:48:44;95765.97;;;18.04;70.74
40596;BME280;26304;48.794;9.820;2023-08-30T06:51:07;95754.31;;;18.05;70.87
40596;BME280;26304;48.794;9.820;2023-08-30T06:53:29;95758.84;;;18.05;70.87
40596;BME280;26304;48.794;9.820;2023-08-30T06:55:57;95759.22;;;18.07;70.85
40596;BME280;26304;48.794;9.820;2023-08-30T06:58:19;95750.19;;;18.08;71.05
40596;BME280;26304;48.794;9.820;2023-08-30T07:00:41;95750.19;;;18.08;70.95
40596;BME280;26304;48.794;9.820;2023-08-30T07:03:05;95753.56;;;18.08;70.93
40596;BME280;26304;48.794;9.820;2023-08-30T07:05:28;95743.03;;;18.08;70.83
40596;BME280;26304;48.794;9.820;2023-08-30T07:07:50;95747.53;;;18.11;70.92
40596;BME280;26304;48.794;9.820;2023-08-30T07:10:13;95748.28;;;18.12;70.96
40596;BME280;26304;48.794;9.820;2023-08-30T07:12:35;95750.56;;;18.06;71.16
40596;BME280;26304;48.794;9.820;2023-08-30T07:14:57;95750.91;;;18.12;70.89
40596;BME280;26304;48.794;9.820;2023-08-30T07:17:20;95748.28;;;18.12;70.86
40596;BME280;26304;48.794;9.820;2023-08-30T07:19:43;95749.81;;;18.09;70.84
40596;BME280;26304;48.794;9.820;2023-08-30T07:22:06;95750.19;;;18.11;70.63
40596;BME280;26304;48.794;9.820;2023-08-30T07:24:28;95742.28;;;18.11;70.71
40596;BME280;26304;48.794;9.820;2023-08-30T07:26:51;95749.81;;;18.09;70.67
40596;BME280;26304;48.794;9.820;2023-08-30T07:29:13;95750.19;;;18.11;70.94
40596;BME280;26304;48.794;9.820;2023-08-30T07:31:36;95745.28;;;18.13;70.54
40596;BME280;26304;48.794;9.820;2023-08-30T07:34:00;95747.16;;;18.13;70.61
40596;BME280;26304;48.794;9.820;2023-08-30T07:36:25;95738.50;;;18.12;70.77
40596;BME280;26304;48.794;9.820;2023-08-30T07:38:47;95743.78;;;18.16;70.78
40596;BME280;26304;48.794;9.820;2023-08-30T07:41:10;95737.00;;;18.15;70.64
40596;BME280;26304;48.794;9.820;2023-08-30T07:43:32;95738.13;;;18.14;70.93
40596;BME280;26304;48.794;9.820;2023-08-30T07:45:55;95741.53;;;18.14;70.79
40596;BME280;26304;48.794;9.820;2023-08-30T07:48:18;95744.50;;;18.17;70.61
40596;BME280;26304;48.794;9.820;2023-08-30T07:50:41;95747.13;;;18.17;70.77
40596;BME280;26304;48.794;9.820;2023-08-30T07:53:04;95743.38;;;18.18;70.57
40596;BME280;26304;48.794;9.820;2023-08-30T07:55:27;95743.00;;;18.19;70.97
40596;BME280;26304;48.794;9.820;2023-08-30T07:57:49;95737.75;;;18.19;70.98
40596;BME280;26304;48.794;9.820;2023-08-30T08:00:13;95733.97;;;18.20;70.86
40596;BME280;26304;48.794;9.820;2023-08-30T08:02:35;95736.59;;;18.20;70.75
40596;BME280;26304;48.794;9.820;2023-08-30T08:04:58;95740.00;;;18.21;70.85
40596;BME280;26304;48.794;9.820;2023-08-30T08:07:20;95739.22;;;18.20;71.10
40596;BME280;26304;48.794;9.820;2023-08-30T08:09:44;95734.72;;;18.21;70.79
40596;BME280;26304;48.794;9.820;2023-08-30T08:12:06;95735.47;;;18.21;70.82
40596;BME280;26304;48.794;9.820;2023-08-30T08:14:29;95737.38;;;18.21;71.10
40596;BME280;26304;48.794;9.820;2023-08-30T08:16:51;95735.84;;;18.23;70.77
40596;BME280;26304;48.794;9.820;2023-08-30T08:19:14;95741.47;;;18.25;70.83
40596;BME280;26304;48.794;9.820;2023-08-30T08:21:36;95741.47;;;18.25;70.77
40596;BME280;26304;48.794;9.820;2023-08-30T08:23:59;95741.47;;;18.22;70.94
40596;BME280;26304;48.794;9.820;2023-08-30T08:26:23;95743.00;;;18.23;71.57
40596;BME280;26304;48.794;9.820;2023-08-30T08:28:46;95738.09;;;18.25;71.19
40596;BME280;26304;48.794;9.820;2023-08-30T08:31:08;95737.72;;;18.23;71.20
40596;BME280;26304;48.794;9.820;2023-08-30T08:33:31;95734.34;;;18.26;71.04
40596;BME280;26304;48.794;9.820;2023-08-30T08:35:53;95741.88;;;18.24;71.13
40596;BME280;26304;48.794;9.820;2023-08-30T08:38:16;95738.09;;;18.25;71.22
40596;BME280;26304;48.794;9.820;2023-08-30T08:40:38;95745.97;;;18.25;71.21
40596;BME280;26304;48.794;9.820;2023-08-30T08:43:02;95740.72;;;18.25;71.33
40596;BME280;26304;48.794;9.820;2023-08-30T08:45:26;95739.22;;;18.27;71.03
40596;BME280;26304;48.794;9.820;2023-08-30T08:47:48;95745.22;;;18.28;70.88
40596;BME280;26304;48.794;9.820;2023-08-30T08:50:11;95749.69;;;18.34;70.51
40596;BME280;26304;48.794;9.820;2023-08-30T08:52:34;95743.66;;;18.38;70.71
40596;BME280;26304;48.794;9.820;2023-08-30T08:54:56;95742.56;;;18.35;70.90
40596;BME280;26304;48.794;9.820;2023-08-30T08:57:21;95738.41;;;18.34;71.25
40596;BME280;26304;48.794;9.820;2023-08-30T08:59:45;95741.06;;;18.34;71.14
40596;BME280;26304;48.794;9.820;2023-08-30T09:02:07;95745.94;;;18.36;71.24
40596;BME280;26304;48.794;9.820;2023-08-30T09:04:32;95741.41;;;18.36;71.01
40596;BME280;26304;48.794;9.820;2023-08-30T09:06:55;95740.25;;;18.44;70.97
40596;BME280;26304;48.794;9.820;2023-08-30T09:09:17;95740.97;;;18.48;70.55
40596;BME280;26304;48.794;9.820;2023-08-30T09:11:40;95742.16;;;18.40;71.13
40596;BME280;26304;48.794;9.820;2023-08-30T09:14:02;95744.78;;;18.40;70.57
40596;BME280;26304;48.794;9.820;2023-08-30T09:16:26;95734.25;;;18.40;70.62
40596;BME280;26304;48.794;9.820;2023-08-30T09:18:57;95736.16;;;18.40;70.55
40596;BME280;26304;48.794;9.820;2023-08-30T09:21:20;95739.91;;;18.39;70.98
40596;BME280;26304;48.794;9.820;2023-08-30T09:23:42;95739.91;;;18.39;70.90
40596;BME280;26304;48.794;9.820;2023-08-30T09:26:05;95745.16;;;18.42;71.33
40596;BME280;26304;48.794;9.820;2023-08-30T09:28:27;95743.66;;;18.41;70.55
40596;BME280;26304;48.794;9.820;2023-08-30T09:30:50;95739.88;;;18.42;70.44
40596;BME280;26304;48.794;9.820;2023-08-30T09:33:13;95743.22;;;18.50;70.57
40596;BME280;26304;48.794;9.820;2023-08-30T09:35:45;95738.34;;;18.48;70.81
40596;BME280;26304;48.794;9.820;2023-08-30T09:38:16;95737.59;;;18.48;70.54
40596;BME280;26304;48.794;9.820;2023-08-30T09:40:38;95739.47;;;18.47;70.77
40596;BME280;26304;48.794;9.820;2023-08-30T09:43:01;95731.56;;;18.47;70.73
40596;BME280;26304;48.794;9.820;2023-08-30T09:45:24;95728.94;;;18.51;70.28
40596;BME280;26304;48.794;9.820;2023-08-30T09:47:47;95730.03;;;18.54;70.77
40596;BME280;26304;48.794;9.820;2023-08-30T09:50:11;95735.34;;;18.50;70.53
40596;BME280;26304;48.794;9.820;2023-08-30T09:52:35;95727.06;;;18.51;70.62
40596;BME280;26304;48.794;9.820;2023-08-30T09:54:58;95725.94;;;18.52;70.89
40596;BME280;26304;48.794;9.820;2023-08-30T09:57:22;95722.91;;;18.50;70.81
40596;BME280;26304;48.794;9.820;2023-08-30T09:59:45;95722.53;;;18.52;70.44
40596;BME280;26304;48.794;9.820;2023-08-30T10:02:08;95721.44;;;18.49;71.09
40596;BME280;26304;48.794;9.820;2023-08-30T10:04:31;95720.28;;;18.50;70.83
40596;BME280;26304;48.794;9.820;2023-08-30T10:06:55;95721.78;;;18.51;70.90
40596;BME280;26304;48.794;9.820;2023-08-30T10:09:19;95720.22;;;18.61;70.19
40596;BME280;26304;48.794;9.820;2023-08-30T10:11:41;95713.81;;;18.66;70.41
40596;BME280;26304;48.794;9.820;2023-08-30T10:14:07;95715.63;;;18.73;70.39
40596;BME280;26304;48.794;9.820;2023-08-30T10:16:34;95713.03;;;18.69;70.25
40596;BME280;26304;48.794;9.820;2023-08-30T10:19:01;95711.91;;;18.70;70.17
40596;BME280;26304;48.794;9.820;2023-08-30T10:21:26;95706.28;;;18.64;70.59
40596;BME280;26304;48.794;9.820;2023-08-30T10:23:51;95707.34;;;18.74;70.34
40596;BME280;26304;48.794;9.820;2023-08-30T10:26:18;95711.06;;;18.80;71.19
40596;BME280;26304;48.794;9.820;2023-08-30T10:28:42;95699.41;;;18.85;70.59
40596;BME280;26304;48.794;9.820;2023-08-30T10:31:05;95707.28;;;18.88;71.04
40596;BME280;26304;48.794;9.820;2023-08-30T10:33:29;95698.19;;;18.97;70.94
40596;BME280;26304;48.794;9.820;2023-08-30T10:35:51;95702.72;;;18.96;70.95
40596;BME280;26304;48.794;9.820;2023-08-30T10:38:24;95707.25;;;18.96;70.66
40596;BME280;26304;48.794;9.820;2023-08-30T10:40:49;95699.34;;;18.92;70.77
40596;BME280;26304;48.794;9.820;2023-08-30T10:43:11;95711.75;;;18.95;70.54
40596;BME280;26304;48.794;9.820;2023-08-30T10:45:34;95708.38;;;19.36;69.99
40596;BME280;26304;48.794;9.820;2023-08-30T10:47:57;95710.53;;;19.49;69.12
40596;BME280;26304;48.794;9.820;2023-08-30T10:50:27;95702.03;;;19.34;69.81
40596;BME280;26304;48.794;9.820;2023-08-30T10:52:54;95702.47;;;19.25;70.82
40596;BME280;26304;48.794;9.820;2023-08-30T10:55:21;95701.78;;;19.17;70.78
40596;BME280;26304;48.794;9.820;2023-08-30T10:57:45;95698.78;;;19.15;70.72
40596;BME280;26304;48.794;9.820;2023-08-30T11:00:09;95703.63;;;19.20;70.06
40596;BME280;26304;48.794;9.820;2023-08-30T11:02:32;95702.50;;;19.21;70.64
40596;BME280;26304;48.794;9.820;2023-08-30T11:04:56;95696.84;;;19.23;70.48
40596;BME280;26304;48.794;9.820;2023-08-30T11:07:19;95699.88;;;19.21;70.59
40596;BME280;26304;48.794;9.820;2023-08-30T11:09:41;95698.00;;;19.18;70.62
40596;BME280;26304;48.794;9.820;2023-08-30T11:12:05;95701.03;;;19.17;70.50
40596;BME280;26304;48.794;9.820;2023-08-30T11:14:29;95697.66;;;19.16;70.38
40596;BME280;26304;48.794;9.820;2023-08-30T11:16:51;95700.66;;;19.18;70.26
40596;BME280;26304;48.794;9.820;2023-08-30T11:19:13;95703.28;;;19.18;70.10
40596;BME280;26304;48.794;9.820;2023-08-30T11:21:37;95689.69;;;19.23;70.02
40596;BME280;26304;48.794;9.820;2023-08-30T11:24:00;95694.59;;;19.21;69.99
40596;BME280;26304;48.794;9.820;2023-08-30T11:26:22;95693.44;;;19.22;70.24
40596;BME280;26304;48.794;9.820;2023-08-30T11:28:45;95694.22;;;19.23;69.99
40596;BME280;26304;48.794;9.820;2023-08-30T11:31:10;95691.63;;;19.19;70.10
40596;BME280;26304;48.794;9.820;2023-08-30T11:33:39;95683.00;;;19.15;70.08
40596;BME280;26304;48.794;9.820;2023-08-30T11:36:01;95688.97;;;19.19;70.09
40596;BME280;26304;48.794;9.820;2023-08-30T11:38:24;95689.38;;;19.18;70.05
40596;BME280;26304;48.794;9.820;2023-08-30T11:40:49;95682.94;;;19.19;70.03
40596;BME280;26304;48.794;9.820;2023-08-30T11:43:12;95691.25;;;19.17;70.05
40596;BME280;26304;48.794;9.820;2023-08-30T11:45:34;95688.22;;;19.19;70.00
40596;BME280;26304;48.794;9.820;2023-08-30T11:47:58;95688.59;;;19.17;70.36
40596;BME280;26304;48.794;9.820;2023-08-30T11:50:21;95685.19;;;19.20;70.14
40596;BME280;26304;48.794;9.820;2023-08-30T11:52:44;95681.47;;;19.18;69.92
40596;BME280;26304;48.794;9.820;2023-08-30T11:55:07;95681.47;;;19.14;69.94
40596;BME280;26304;48.794;9.820;2023-08-30T11:57:32;95683.00;;;19.15;70.03
40596;BME280;26304;48.794;9.820;2023-08-30T11:59:55;95679.53;;;19.22;69.93
40596;BME280;26304;48.794;9.820;2023-08-30T12:02:18;95679.88;;;19.24;69.95
40596;BME280;26304;48.794;9.820;2023-08-30T12:04:45;95675.34;;;19.28;70.52
40596;BME280;26304;48.794;9.820;2023-08-30T12:07:07;95676.03;;;19.36;70.42
40596;BME280;26304;48.794;9.820;2023-08-30T12:09:30;95678.25;;;19.37;70.47
40596;BME280;26304;48.794;9.820;2023-08-30T12:11:53;95672.94;;;19.41;70.31
40596;BME280;26304;48.794;9.820;2023-08-30T12:14:15;95672.91;;;19.48;70.32
40596;BME280;26304;48.794;9.820;2023-08-30T12:16:39;95662.69;;;19.50;69.77
40596;BME280;26304;48.794;9.820;2023-08-30T12:19:08;95668.66;;;19.54;69.82
40596;BME280;26304;48.794;9.820;2023-08-30T12:21:39;95665.97;;;19.62;69.40
40596;BME280;26304;48.794;9.820;2023-08-30T12:24:02;95664.09;;;19.58;69.32
40596;BME280;26304;48.794;9.820;2023-08-30T12:26:31;95665.34;;;19.50;69.67
40596;BME280;26304;48.794;9.820;2023-08-30T12:28:54;95674.38;;;19.49;69.55
40596;BME280;26304;48.794;9.820;2023-08-30T12:31:17;95665.34;;;19.50;69.69
40596;BME280;26304;48.794;9.820;2023-08-30T12:33:41;95661.53;;;19.55;69.48
40596;BME280;26304;48.794;9.820;2023-08-30T12:36:04;95656.59;;;19.57;69.75
40596;BME280;26304;48.794;9.820;2023-08-30T12:38:27;95651.66;;;19.59;69.31
40596;BME280;26304;48.794;9.820;2023-08-30T12:40:51;95653.06;;;19.71;69.26